EDLN/MGL METAR and TAF weather

Enter ICAO airport designator
Station Type Date Time Source
EDLN METAR 2022/12/05 15:20 UTC NOAA

EDLN 051520Z VRB01KT 1800 -SNRA BR OVC003 00/00 Q1019


Station Type Date Time Source
EDLN Decoded METAR 2022/12/05 15:20 UTC NOAA

Monchengladbach, Germany (EDLN) 51-13-49N 006-30-16E
Dec 05, 2022 - 10:20 AM EST / 2022.12.05 1520 UTC
Wind: Variable at 1 MPH (1 KT):0
Visibility: 1 mile(s):0
Sky conditions: overcast
Weather: light snow, rain; mist
Temperature: 32 F (0 C)
Dew Point: 32 F (0 C)
Relative Humidity: 100%
Pressure (altimeter): 30.09 in. Hg (1019 hPa)
ob: EDLN 051520Z VRB01KT 1800 -SNRA BR OVC003 00/00 Q1019
cycle: 15

Station Type Date Time Source
EDLN TAF 2010/02/22 14:20 UTC NOAA

METAR EDLN 221420Z 18010G20KT 090V240 9999 SCT030 BKN045 11/06 Q0986
RMK ATIS R=

Example: see airport list